createdAt,value
2017-10-16T01:37:33.213Z,0
2017-10-16T05:08:46.930Z,2
2017-10-16T05:15:17.374Z,5
2017-10-16T05:17:47.526Z,8
2017-10-16T05:19:47.689Z,10
2017-10-16T05:20:47.708Z,13
2017-10-16T05:22:17.778Z,15
2017-10-16T05:23:17.848Z,17
2017-10-16T05:23:48.130Z,20
2017-10-16T05:24:47.947Z,22
2017-10-16T05:25:18.031Z,25
2017-10-16T05:25:48.116Z,28
2017-10-16T05:26:18.052Z,30
2017-10-16T05:26:48.129Z,32
2017-10-16T05:27:18.135Z,35
2017-10-16T05:27:48.152Z,37
2017-10-16T05:28:18.241Z,40
2017-10-16T05:28:48.201Z,43
2017-10-16T05:29:18.276Z,47
2017-10-16T05:29:48.290Z,50
2017-10-16T05:30:18.307Z,55
2017-10-16T05:30:48.392Z,58
2017-10-16T05:31:18.380Z,62
2017-10-16T05:31:48.496Z,67
2017-10-16T05:32:18.453Z,73
2017-10-16T05:32:48.507Z,77
2017-10-16T05:33:18.575Z,83
2017-10-16T05:33:48.530Z,88
2017-10-16T05:34:18.581Z,92
2017-10-16T05:34:48.634Z,98
2017-10-16T05:35:18.679Z,105
2017-10-16T05:35:48.666Z,110
2017-10-16T05:36:18.710Z,118
2017-10-16T05:36:48.777Z,125
2017-10-16T05:37:18.833Z,133
2017-10-16T05:37:48.888Z,140
2017-10-16T05:38:18.978Z,148
2017-10-16T05:38:48.942Z,155
2017-10-16T05:39:18.973Z,160
2017-10-16T05:39:49.055Z,167
2017-10-16T05:40:19.053Z,178
2017-10-16T05:40:49.091Z,185
2017-10-16T05:41:19.122Z,195
2017-10-16T05:41:49.175Z,205
2017-10-16T05:42:19.237Z,215
2017-10-16T05:42:49.210Z,225
2017-10-16T05:43:19.402Z,235
2017-10-16T05:43:49.332Z,245
2017-10-16T05:44:19.304Z,255
2017-10-16T05:44:49.377Z,268
2017-10-16T05:45:19.362Z,277
2017-10-16T05:45:49.445Z,290
2017-10-16T05:46:19.497Z,302
2017-10-16T05:46:49.515Z,313
2017-10-16T05:47:19.571Z,322
2017-10-16T05:47:49.584Z,335
2017-10-16T05:48:19.650Z,347
2017-10-16T05:48:49.655Z,360
2017-10-16T05:49:19.728Z,375
2017-10-16T05:49:49.713Z,388
2017-10-16T05:50:19.820Z,400
2017-10-16T05:50:49.820Z,415
2017-10-16T05:51:19.867Z,430
2017-10-16T05:51:49.941Z,442
2017-10-16T05:52:19.959Z,458
2017-10-16T05:52:50.000Z,473
2017-10-16T05:53:20.142Z,485
2017-10-16T05:53:50.142Z,500
2017-10-16T05:54:20.120Z,517
2017-10-16T05:54:50.149Z,533
2017-10-16T05:55:20.174Z,548
2017-10-16T05:55:50.172Z,565
2017-10-16T05:56:20.254Z,580
2017-10-16T05:56:50.283Z,598
2017-10-16T05:57:20.294Z,615
2017-10-16T05:57:50.342Z,632
2017-10-16T05:58:20.324Z,645
2017-10-16T05:58:50.497Z,662
2017-10-16T05:59:20.396Z,680
2017-10-16T05:59:50.503Z,698
2017-10-16T06:00:20.471Z,715
2017-10-16T06:00:50.561Z,733
2017-10-16T06:01:20.536Z,752
2017-10-16T06:01:50.613Z,770
2017-10-16T06:02:20.625Z,790
2017-10-16T06:02:50.667Z,805
2017-10-16T06:03:20.694Z,825
2017-10-16T06:03:50.785Z,845
2017-10-16T06:04:20.796Z,868
2017-10-16T06:04:50.858Z,887
2017-10-16T06:05:20.832Z,910
2017-10-16T06:05:50.858Z,932
2017-10-16T06:06:20.896Z,952
2017-10-16T06:06:50.931Z,970
2017-10-16T06:07:20.983Z,990
2017-10-16T06:07:50.989Z,1012
2017-10-16T06:08:21.070Z,1035
2017-10-16T06:08:51.118Z,1058
2017-10-16T06:09:21.091Z,1080
2017-10-16T06:09:51.120Z,1102
2017-10-16T06:10:21.184Z,1125
2017-10-16T06:10:51.210Z,1150
2017-10-16T06:11:21.266Z,1172
2017-10-16T06:11:51.306Z,1198
2017-10-16T06:12:21.285Z,1223
2017-10-16T06:12:51.368Z,1247
2017-10-16T06:13:21.361Z,1273
2017-10-16T06:13:51.493Z,1292
2017-10-16T06:14:21.468Z,1320
2017-10-16T06:14:51.503Z,1345
2017-10-16T06:15:21.483Z,1372
2017-10-16T06:15:51.577Z,1400
2017-10-16T06:16:21.594Z,1427
2017-10-16T06:16:51.632Z,1453
2017-10-16T06:17:21.591Z,1477
2017-10-16T06:17:51.682Z,1502
2017-10-16T06:18:21.673Z,1528
2017-10-16T06:18:51.809Z,1552
2017-10-16T06:19:21.751Z,1575
2017-10-16T06:19:51.766Z,1598
2017-10-16T06:20:21.805Z,1618
2017-10-16T06:20:51.863Z,1637
2017-10-16T06:21:21.942Z,1660
2017-10-16T06:21:51.900Z,1682
2017-10-16T06:22:21.983Z,1705
2017-10-16T06:22:51.964Z,1727
2017-10-16T06:23:22.000Z,1750
2017-10-16T06:23:52.107Z,1770
2017-10-16T06:24:22.076Z,1792
2017-10-16T06:24:52.098Z,1815
2017-10-16T06:25:22.126Z,1835
2017-10-16T06:25:52.163Z,1858
2017-10-16T06:26:22.204Z,1875
2017-10-16T06:26:52.223Z,1895
2017-10-16T06:27:22.329Z,1913
2017-10-16T06:27:52.339Z,1933
2017-10-16T06:28:22.442Z,1952
2017-10-16T06:28:52.468Z,1973
2017-10-16T06:29:22.476Z,1993
2017-10-16T06:29:52.508Z,2015
2017-10-16T06:30:22.561Z,2035
2017-10-16T06:30:52.583Z,2055
2017-10-16T06:31:22.599Z,2080
2017-10-16T06:31:52.653Z,2100
2017-10-16T06:32:22.687Z,2123
2017-10-16T06:32:52.694Z,2147
2017-10-16T06:33:22.753Z,2170
2017-10-16T06:33:52.835Z,2190
2017-10-16T06:34:22.760Z,2210
2017-10-16T06:34:52.867Z,2230
2017-10-16T06:35:22.876Z,2245
2017-10-16T06:35:52.935Z,2265
2017-10-16T06:36:22.941Z,2282
2017-10-16T06:36:52.986Z,2302
2017-10-16T06:37:23.012Z,2320
2017-10-16T06:37:53.054Z,2335
2017-10-16T06:38:23.105Z,2355
2017-10-16T06:38:53.162Z,2370
2017-10-16T06:39:23.090Z,2395
2017-10-16T06:39:53.126Z,2410
2017-10-16T06:40:23.212Z,2430
2017-10-16T06:40:53.231Z,2450
2017-10-16T06:41:23.293Z,2470
2017-10-16T06:41:53.305Z,2492
2017-10-16T06:42:23.382Z,2515
2017-10-16T06:42:53.403Z,2537
2017-10-16T06:43:23.406Z,2557
2017-10-16T06:43:53.634Z,2550
2017-10-16T06:44:23.418Z,2555
2017-10-16T06:45:23.552Z,2563
2017-10-16T06:45:53.519Z,2617
2017-10-16T06:46:23.587Z,2633
2017-10-16T06:46:53.613Z,2648
2017-10-16T06:47:23.611Z,2660
2017-10-16T06:47:53.684Z,2677
2017-10-16T06:48:23.677Z,2690
2017-10-16T06:48:53.734Z,2715
2017-10-16T06:49:23.779Z,2683
2017-10-16T06:49:53.776Z,2730
2017-10-16T06:50:23.796Z,2785
2017-10-16T06:50:53.850Z,2807
2017-10-16T06:51:23.876Z,2963
2017-10-16T06:51:53.908Z,3563
2017-10-16T06:52:23.942Z,4352
2017-10-16T06:52:53.979Z,4952
2017-10-16T06:53:23.992Z,5475
2017-10-16T06:53:54.111Z,5383
2017-10-16T06:54:24.126Z,5608
2017-10-16T06:54:54.096Z,5668
2017-10-16T06:55:24.120Z,5725
2017-10-16T06:55:54.167Z,5775
2017-10-16T06:56:24.190Z,5850
2017-10-16T06:56:54.217Z,5948
2017-10-16T06:57:24.295Z,6013
2017-10-16T06:57:54.336Z,6022
2017-10-16T06:58:24.321Z,6113
2017-10-16T06:58:54.399Z,6182
2017-10-16T06:59:24.386Z,6242
2017-10-16T06:59:54.437Z,6300
2017-10-16T07:00:24.621Z,6335
2017-10-16T07:00:54.512Z,6390
2017-10-16T07:01:24.586Z,6452
2017-10-16T07:01:54.619Z,6545
2017-10-16T07:02:24.616Z,6607
2017-10-16T07:02:54.668Z,6665
2017-10-16T07:03:24.662Z,6703
2017-10-16T07:03:54.752Z,6737
2017-10-16T07:04:24.788Z,6790
2017-10-16T07:04:54.755Z,6850
2017-10-16T07:05:24.825Z,6887
2017-10-16T07:05:54.842Z,6940
2017-10-16T07:06:24.849Z,7027
2017-10-16T07:06:54.884Z,7055
2017-10-16T07:07:24.911Z,7095
2017-10-16T07:07:54.978Z,7133
2017-10-16T07:08:24.997Z,7210
2017-10-16T07:08:55.005Z,7255
2017-10-16T07:09:25.045Z,7310
2017-10-16T07:09:55.292Z,7357
2017-10-16T07:10:25.295Z,7432
2017-10-16T07:10:55.360Z,7530
2017-10-16T07:11:25.453Z,7628
2017-10-16T07:11:55.406Z,7687
2017-10-16T07:12:25.509Z,7755
2017-10-16T07:12:55.534Z,7813
2017-10-16T07:13:25.576Z,7875
2017-10-16T07:13:55.624Z,7963
2017-10-16T07:14:25.677Z,8045
2017-10-16T07:14:55.650Z,8105
2017-10-16T07:15:25.688Z,8177
2017-10-16T07:15:55.714Z,8243
2017-10-16T07:16:25.716Z,8317
2017-10-16T07:16:55.802Z,8405
2017-10-16T07:17:25.772Z,8475
2017-10-16T07:17:55.834Z,8530
2017-10-16T07:18:25.889Z,8582
2017-10-16T07:18:55.906Z,8620
2017-10-16T07:19:25.977Z,8657
2017-10-16T07:19:56.002Z,8705
2017-10-16T07:20:26.045Z,8743
2017-10-16T07:20:56.043Z,8800
2017-10-16T07:21:26.070Z,8827
2017-10-16T07:21:56.098Z,8897
2017-10-16T07:22:26.118Z,8953
2017-10-16T07:22:56.184Z,9017
2017-10-16T07:23:26.256Z,9062
2017-10-16T07:23:56.271Z,9105
2017-10-16T07:24:26.278Z,9148
2017-10-16T07:24:56.346Z,9223
2017-10-16T07:25:26.367Z,9280
2017-10-16T07:25:56.364Z,9362
2017-10-16T07:26:26.463Z,9413
2017-10-16T07:26:56.461Z,9452
2017-10-16T07:27:26.463Z,9480
2017-10-16T07:27:56.483Z,9540
2017-10-16T07:28:26.495Z,9577
2017-10-16T07:28:56.577Z,9625
2017-10-16T07:29:26.562Z,9680
2017-10-16T07:29:56.636Z,9727
2017-10-16T07:30:26.619Z,9745
2017-10-16T07:30:56.710Z,9812
2017-10-16T07:31:26.689Z,9848
2017-10-16T07:31:56.761Z,9925
2017-10-16T07:32:26.766Z,9988
2017-10-16T07:32:56.782Z,10040
2017-10-16T07:33:26.887Z,10097
2017-10-16T07:33:58.443Z,10175
2017-10-16T07:34:26.986Z,10253
2017-10-16T07:34:57.423Z,10333
2017-10-16T07:35:27.092Z,10410
2017-10-16T07:35:57.121Z,10487
2017-10-16T07:36:27.089Z,10543
2017-10-16T07:36:57.199Z,10603
2017-10-16T07:37:27.200Z,10650
2017-10-16T07:37:57.153Z,10730
2017-10-16T07:38:27.230Z,10800
2017-10-16T07:38:57.225Z,10865
2017-10-16T07:39:27.281Z,10918
2017-10-16T07:39:57.278Z,10993
2017-10-16T07:40:27.316Z,11048
2017-10-16T07:40:57.314Z,11100
2017-10-16T07:41:27.361Z,11158
2017-10-16T07:41:57.448Z,11252
2017-10-16T07:42:27.416Z,11350
2017-10-16T07:42:57.497Z,11420
2017-10-16T07:43:27.488Z,11458
2017-10-16T07:43:57.592Z,11507
2017-10-16T07:44:27.604Z,11543
2017-10-16T07:44:57.643Z,11580
2017-10-16T07:45:27.650Z,11625
2017-10-16T07:45:57.699Z,11693
2017-10-16T07:46:27.684Z,11758
2017-10-16T07:46:57.719Z,11813
2017-10-16T07:47:27.747Z,11865
2017-10-16T07:47:57.788Z,11950
2017-10-16T07:48:27.937Z,12025
2017-10-16T07:48:58.002Z,12107
2017-10-16T07:49:27.870Z,12142
2017-10-16T07:49:57.917Z,12197
2017-10-16T07:50:27.953Z,12235
2017-10-16T07:50:57.983Z,12262
2017-10-16T07:51:28.025Z,12340
2017-10-16T07:51:58.045Z,12400
2017-10-16T07:52:28.076Z,12422
2017-10-16T07:52:58.138Z,12410
2017-10-16T07:53:28.142Z,12418
2017-10-16T07:53:58.224Z,12335
2017-10-16T07:54:28.212Z,12385
2017-10-16T07:54:58.250Z,12482
2017-10-16T07:55:28.319Z,12510
2017-10-16T07:55:58.306Z,12527
2017-10-16T07:56:28.353Z,12545
2017-10-16T07:56:58.422Z,12570
2017-10-16T07:57:28.454Z,12487
2017-10-16T07:57:58.449Z,12542
2017-10-16T07:58:28.528Z,12538
2017-10-16T07:58:58.515Z,12570
2017-10-16T07:59:28.652Z,12688
2017-10-16T07:59:58.617Z,12748
2017-10-16T08:00:28.641Z,12773
2017-10-16T08:00:58.717Z,12750
2017-10-16T08:01:28.735Z,12805
2017-10-16T08:01:58.777Z,12950
2017-10-16T08:02:28.802Z,13072
2017-10-16T08:02:58.832Z,13097
2017-10-16T08:03:28.872Z,13210
2017-10-16T08:03:58.887Z,13238
2017-10-16T08:04:28.988Z,13258
2017-10-16T08:04:58.972Z,13277
2017-10-16T08:05:28.959Z,13310
2017-10-16T08:05:59.015Z,13320
2017-10-16T08:06:28.998Z,13333
2017-10-16T08:06:59.066Z,13385
2017-10-16T08:07:29.074Z,13445
2017-10-16T08:07:59.134Z,13438
2017-10-16T08:08:29.121Z,13367
2017-10-16T08:08:59.197Z,13355
2017-10-16T08:09:29.270Z,13367
2017-10-16T08:09:59.261Z,13400
2017-10-16T08:10:29.330Z,13438
2017-10-16T08:10:59.321Z,13525
2017-10-16T08:11:29.432Z,13663
2017-10-16T08:11:59.421Z,13847
2017-10-16T08:12:29.396Z,14055
2017-10-16T08:12:59.461Z,14080
2017-10-16T08:13:29.512Z,14008
2017-10-16T08:13:59.569Z,14123
2017-10-16T08:14:29.625Z,14235
2017-10-16T08:14:59.609Z,14260
2017-10-16T08:15:29.634Z,14338
2017-10-16T08:15:59.697Z,14460
2017-10-16T08:16:29.708Z,14602
2017-10-16T08:16:59.731Z,14708
2017-10-16T08:17:29.825Z,14395
2017-10-16T08:17:59.862Z,14635
2017-10-16T08:18:29.852Z,14642
2017-10-16T08:18:59.909Z,14720
2017-10-16T08:19:30.139Z,14638
2017-10-16T08:19:59.978Z,14695
2017-10-16T08:20:29.947Z,14732
2017-10-16T08:21:00.044Z,14775
2017-10-16T08:21:30.013Z,14792
2017-10-16T08:22:00.173Z,14805
2017-10-16T08:22:30.066Z,14902
2017-10-16T08:23:00.200Z,14935
2017-10-16T08:23:30.150Z,14955
2017-10-16T08:24:00.154Z,14935
2017-10-16T08:24:30.273Z,15010
2017-10-16T08:25:00.300Z,15022
2017-10-16T08:25:30.268Z,14983
2017-10-16T08:26:00.700Z,15028
2017-10-16T08:26:30.467Z,15022
2017-10-16T08:27:00.621Z,15085
2017-10-16T08:27:30.435Z,15000
2017-10-16T08:28:00.654Z,15038
2017-10-16T08:28:30.527Z,14990
2017-10-16T08:29:00.858Z,15020
2017-10-16T08:29:30.691Z,14977
2017-10-16T08:30:00.851Z,14972
2017-10-16T08:30:31.245Z,14977
2017-10-16T08:31:02.267Z,15013
2017-10-16T08:31:30.751Z,15017
2017-10-16T08:32:00.839Z,15065
2017-10-16T08:32:30.864Z,15095
2017-10-16T08:33:00.879Z,15098
2017-10-16T08:33:30.991Z,15212
2017-10-16T08:34:00.932Z,15285
2017-10-16T08:34:31.182Z,15323
2017-10-16T08:35:00.985Z,15330
2017-10-16T08:35:31.033Z,15310
2017-10-16T08:36:01.273Z,15398
2017-10-16T08:36:31.229Z,15405
2017-10-16T08:37:02.916Z,15437
2017-10-16T08:37:31.168Z,15418
2017-10-16T08:38:01.232Z,15410
2017-10-16T08:38:31.273Z,15472
2017-10-16T08:39:01.345Z,15450
2017-10-16T08:39:31.423Z,15317
2017-10-16T08:40:01.357Z,15257
2017-10-16T08:40:31.435Z,15107
2017-10-16T08:41:01.395Z,15105
2017-10-16T08:41:32.978Z,15100
2017-10-16T08:42:01.520Z,15255
2017-10-16T08:42:31.501Z,15435
2017-10-16T08:43:01.591Z,15523
2017-10-16T08:43:31.568Z,15727
2017-10-16T08:44:01.596Z,15950
2017-10-16T08:44:31.725Z,16108
2017-10-16T08:45:01.621Z,16205
2017-10-16T08:45:31.756Z,16225
2017-10-16T08:46:01.805Z,16280
2017-10-16T08:46:31.853Z,16235
2017-10-16T08:47:02.661Z,16330
2017-10-16T08:47:33.060Z,16328
2017-10-16T08:48:03.093Z,16385
2017-10-16T08:48:33.072Z,16430
2017-10-16T08:49:03.103Z,16510
2017-10-16T08:49:33.535Z,16550
2017-10-16T08:50:03.419Z,16640
2017-10-16T08:50:33.387Z,16710
2017-10-16T08:51:03.442Z,16678
2017-10-16T08:51:33.456Z,16715
2017-10-16T08:52:03.512Z,16802
2017-10-16T08:52:33.678Z,16880
2017-10-16T08:53:03.729Z,16988
2017-10-16T08:53:34.133Z,17002
2017-10-16T08:54:04.201Z,17048
2017-10-16T08:54:34.472Z,17045
2017-10-16T08:55:04.498Z,17147
2017-10-16T08:55:34.546Z,17188
2017-10-16T08:56:04.628Z,17207
2017-10-16T08:56:34.651Z,17182
2017-10-16T08:57:04.621Z,17248
2017-10-16T08:57:34.738Z,17240
2017-10-16T08:58:04.791Z,17280
2017-10-16T08:58:34.898Z,17338
2017-10-16T08:59:04.889Z,17438
2017-10-16T08:59:35.008Z,17498
2017-10-16T09:00:04.999Z,17563
2017-10-16T09:00:35.042Z,17600
2017-10-16T09:01:05.087Z,17653
2017-10-16T09:01:35.112Z,17693
2017-10-16T09:02:05.265Z,17750
2017-10-16T09:02:35.169Z,17798
2017-10-16T09:03:05.201Z,17822
2017-10-16T09:03:35.155Z,17803
2017-10-16T09:04:05.268Z,17815
2017-10-16T09:04:35.493Z,17850
2017-10-16T09:05:05.288Z,17923
2017-10-16T09:05:35.350Z,17915
2017-10-16T09:06:05.369Z,17978
2017-10-16T09:06:35.428Z,18025
2017-10-16T09:07:05.437Z,17983
2017-10-16T09:07:35.508Z,18047
2017-10-16T09:08:05.499Z,18085
2017-10-16T09:08:35.563Z,18185
2017-10-16T09:09:05.616Z,18310
2017-10-16T09:09:35.654Z,18383
2017-10-16T09:10:05.642Z,18330
2017-10-16T09:10:35.695Z,18345
2017-10-16T09:11:05.744Z,18328
2017-10-16T09:11:35.729Z,18358
2017-10-16T09:12:05.772Z,18377
2017-10-16T09:12:35.830Z,18420
2017-10-16T09:13:05.840Z,18403
2017-10-16T09:14:05.901Z,18455
2017-10-16T09:14:35.995Z,18525
2017-10-16T09:15:05.965Z,18605
2017-10-16T09:15:36.014Z,18613
2017-10-16T09:16:06.079Z,18727
2017-10-16T09:16:36.081Z,18770
2017-10-16T09:17:06.164Z,18878
2017-10-16T09:17:36.145Z,18935
2017-10-16T09:18:06.208Z,18898
2017-10-16T09:18:36.273Z,18900
2017-10-16T09:19:06.283Z,18830
2017-10-16T09:19:36.495Z,18883
2017-10-16T09:20:06.340Z,18833
2017-10-16T09:20:36.424Z,18838
2017-10-16T09:21:06.436Z,18880
2017-10-16T09:21:36.454Z,18985
2017-10-16T09:22:06.630Z,19022
2017-10-16T09:22:36.559Z,19030
2017-10-16T09:23:36.657Z,19040
2017-10-16T09:24:06.682Z,19050
2017-10-16T09:24:36.734Z,19067
2017-10-16T09:25:06.725Z,19088
2017-10-16T09:25:36.744Z,19155
2017-10-16T09:26:06.831Z,19180
2017-10-16T09:26:36.825Z,19280
2017-10-16T09:27:06.839Z,19360
2017-10-16T09:27:36.880Z,19493
2017-10-16T09:28:06.909Z,19477
2017-10-16T09:28:36.948Z,19440
2017-10-16T09:29:06.971Z,19380
2017-10-16T09:29:37.113Z,19438
2017-10-16T09:30:07.050Z,19513
2017-10-16T09:30:37.157Z,19480
2017-10-16T09:31:07.101Z,19468
2017-10-16T09:31:37.174Z,19525
2017-10-16T09:32:07.173Z,19565
2017-10-16T09:32:37.212Z,19528
2017-10-16T09:33:07.234Z,19547
2017-10-16T09:33:37.279Z,19577
2017-10-16T09:34:07.357Z,19550
2017-10-16T09:34:37.385Z,19483
2017-10-16T09:35:07.386Z,19618
2017-10-16T09:35:37.424Z,19838
2017-10-16T09:36:07.495Z,19855
2017-10-16T09:36:37.530Z,19963
2017-10-16T09:37:07.566Z,20057
2017-10-16T09:37:37.616Z,19973
2017-10-16T09:38:07.656Z,19853
2017-10-16T09:38:37.674Z,19877
2017-10-16T09:39:07.715Z,19873
2017-10-16T09:39:37.791Z,19850
2017-10-16T09:40:07.791Z,19772
2017-10-16T09:40:37.832Z,19847
2017-10-16T09:41:07.859Z,20050
2017-10-16T09:41:37.844Z,20010
2017-10-16T09:42:07.887Z,20093
2017-10-16T09:42:37.962Z,20158
2017-10-16T09:43:07.971Z,20095
2017-10-16T09:43:38.027Z,20038
2017-10-16T09:44:08.071Z,19970
2017-10-16T09:44:38.125Z,19903
2017-10-16T09:45:08.135Z,19825
2017-10-16T09:45:38.162Z,19680
2017-10-16T09:46:08.197Z,19470
2017-10-16T09:46:38.248Z,18058
2017-10-16T09:47:08.279Z,13432
2017-10-16T09:47:38.348Z,15247
2017-10-16T09:48:08.326Z,17798
2017-10-16T09:48:38.384Z,14880
2017-10-16T09:49:08.418Z,18100
2017-10-16T09:49:38.436Z,19897
2017-10-16T09:50:08.450Z,19675
2017-10-16T09:50:38.467Z,19262
2017-10-16T09:51:08.532Z,19522
2017-10-16T09:51:38.523Z,18383
2017-10-16T09:52:08.544Z,16735
2017-10-16T09:52:38.577Z,19445
2017-10-16T09:53:08.690Z,20130
2017-10-16T09:53:38.645Z,20093
2017-10-16T09:54:08.689Z,20270
2017-10-16T09:54:38.818Z,20407
2017-10-16T09:55:08.743Z,20415
2017-10-16T09:55:38.860Z,20342
2017-10-16T09:56:08.840Z,20488
2017-10-16T09:56:38.862Z,20593
2017-10-16T09:57:08.935Z,20695
2017-10-16T09:57:38.932Z,20705
2017-10-16T09:58:08.973Z,20780
2017-10-16T09:58:38.994Z,20815
2017-10-16T09:59:09.021Z,20890
2017-10-16T09:59:39.128Z,20837
2017-10-16T10:00:09.110Z,20805
2017-10-16T10:00:39.130Z,20798
2017-10-16T10:01:09.180Z,20855
2017-10-16T10:01:39.209Z,20998
2017-10-16T10:02:09.320Z,21050
2017-10-16T10:02:39.300Z,21038
2017-10-16T10:03:09.372Z,21110
2017-10-16T10:03:39.340Z,21143
2017-10-16T10:04:09.387Z,21175
2017-10-16T10:04:39.525Z,21283
2017-10-16T10:05:09.513Z,21452
2017-10-16T10:05:39.492Z,21385
2017-10-16T10:06:09.532Z,21358
2017-10-16T10:06:39.599Z,21253
2017-10-16T10:07:09.632Z,21265
2017-10-16T10:07:39.623Z,21295
2017-10-16T10:08:09.705Z,21373
2017-10-16T10:08:39.704Z,21478
2017-10-16T10:09:09.759Z,21600
2017-10-16T10:09:39.779Z,21610
2017-10-16T10:10:09.912Z,21743
2017-10-16T10:10:39.817Z,21785
2017-10-16T10:11:09.885Z,21713
2017-10-16T10:11:39.885Z,21767
2017-10-16T10:12:09.932Z,21812
2017-10-16T10:12:40.025Z,21765
2017-10-16T10:13:10.010Z,21782
2017-10-16T10:13:40.031Z,21688
2017-10-16T10:14:10.066Z,21748
2017-10-16T10:14:40.102Z,21658
2017-10-16T10:15:40.186Z,21665
2017-10-16T10:16:10.254Z,21725
2017-10-16T10:16:40.244Z,21760
2017-10-16T10:17:10.383Z,21835
2017-10-16T10:18:10.388Z,21778
2017-10-16T10:18:40.401Z,21900
2017-10-16T10:19:10.421Z,21922
2017-10-16T10:19:40.471Z,21907
2017-10-16T10:20:10.761Z,21870
2017-10-16T10:20:40.530Z,21855
2017-10-16T10:21:10.634Z,21725
2017-10-16T10:21:40.640Z,21863
2017-10-16T10:22:10.699Z,21947
2017-10-16T10:22:40.683Z,22033
2017-10-16T10:23:10.732Z,22080
2017-10-16T10:23:40.726Z,22012
2017-10-16T10:24:10.816Z,22010
2017-10-16T10:24:40.872Z,21975
2017-10-16T10:25:11.012Z,21968
2017-10-16T10:25:40.860Z,22000
2017-10-16T10:26:10.943Z,21992
2017-10-16T10:26:40.965Z,22015
2017-10-16T10:27:11.014Z,22048
2017-10-16T10:27:41.051Z,22162
2017-10-16T10:28:11.109Z,22230
2017-10-16T10:28:41.100Z,22185
2017-10-16T10:29:11.126Z,22080
2017-10-16T10:29:41.159Z,22142
2017-10-16T10:30:11.324Z,22160
2017-10-16T10:30:41.287Z,22090
2017-10-16T10:31:41.377Z,21992
2017-10-16T10:32:11.389Z,21980
2017-10-16T10:32:41.394Z,22052
2017-10-16T10:33:11.502Z,22078
2017-10-16T10:33:41.493Z,22157
2017-10-16T10:34:11.494Z,22240
2017-10-16T10:34:41.534Z,22185
2017-10-16T10:35:11.599Z,22180
2017-10-16T10:35:41.584Z,22252
2017-10-16T10:36:11.610Z,22267
2017-10-16T10:36:41.709Z,22235
2017-10-16T10:37:11.743Z,22290
2017-10-16T10:37:41.742Z,22367
2017-10-16T10:38:11.795Z,22400
2017-10-16T10:38:41.813Z,22472
2017-10-16T10:39:11.809Z,22450
2017-10-16T10:39:41.874Z,22285
2017-10-16T10:40:13.405Z,22243
2017-10-16T10:40:41.912Z,22118
2017-10-16T10:41:11.992Z,22250
2017-10-16T10:41:42.025Z,22343
2017-10-16T10:42:12.056Z,22365
2017-10-16T10:42:42.059Z,22250
2017-10-16T10:43:12.082Z,22352
2017-10-16T10:43:42.129Z,22310
2017-10-16T10:44:12.130Z,22292
2017-10-16T10:44:42.220Z,22275
2017-10-16T10:45:12.260Z,22265
2017-10-16T10:45:42.274Z,22290
2017-10-16T10:46:12.336Z,22307
2017-10-16T10:46:42.299Z,22298
2017-10-16T10:47:12.382Z,22273
2017-10-16T10:47:42.393Z,22277
2017-10-16T10:48:12.476Z,22245
2017-10-16T10:48:42.446Z,22202
2017-10-16T10:49:12.485Z,22155
2017-10-16T10:49:42.564Z,22127
2017-10-16T10:50:12.673Z,22132
2017-10-16T10:50:42.629Z,22070
2017-10-16T10:51:12.736Z,22000
2017-10-16T10:51:42.744Z,21922
2017-10-16T10:52:12.670Z,21953
2017-10-16T10:52:42.698Z,21958
2017-10-16T10:53:12.734Z,21985
2017-10-16T10:53:42.967Z,22018
2017-10-16T10:54:12.859Z,21980
2017-10-16T10:54:42.899Z,22000
2017-10-16T10:55:12.990Z,21960
2017-10-16T10:55:42.983Z,21990
2017-10-16T10:56:13.023Z,21992
2017-10-16T10:56:43.054Z,22022
2017-10-16T10:57:13.102Z,22075
2017-10-16T10:57:43.130Z,22110
2017-10-16T10:58:13.155Z,22103
2017-10-16T10:58:43.219Z,22138
2017-10-16T10:59:13.232Z,22105
2017-10-16T10:59:43.267Z,22118
2017-10-16T11:00:13.378Z,22097
2017-10-16T11:00:43.410Z,22150
2017-10-16T11:01:13.426Z,22147
2017-10-16T11:01:43.419Z,22215
2017-10-16T11:02:13.475Z,22225
2017-10-16T11:02:43.499Z,22230
2017-10-16T11:03:13.499Z,22205
2017-10-16T11:03:43.585Z,22132
2017-10-16T11:04:13.611Z,22085
2017-10-16T11:04:43.595Z,22112
2017-10-16T11:05:13.655Z,22118
2017-10-16T11:05:43.680Z,22145
2017-10-16T11:06:13.726Z,22160
2017-10-16T11:06:44.796Z,22193
2017-10-16T11:07:13.878Z,22187
2017-10-16T11:07:43.887Z,22142
2017-10-16T11:08:13.957Z,22185
2017-10-16T11:08:44.011Z,22177
2017-10-16T11:09:14.025Z,22090
2017-10-16T11:09:44.096Z,22030
2017-10-16T11:10:14.111Z,22007
2017-10-16T11:10:44.172Z,22052
2017-10-16T11:11:14.147Z,22060
2017-10-16T11:11:44.193Z,22127
2017-10-16T11:12:14.255Z,22142
2017-10-16T11:12:44.238Z,22132
2017-10-16T11:13:14.276Z,22065
2017-10-16T11:13:44.275Z,22088
2017-10-16T11:14:14.359Z,22037
2017-10-16T11:14:44.355Z,22010
2017-10-16T11:15:14.433Z,22003
2017-10-16T11:15:44.467Z,21960
2017-10-16T11:16:14.522Z,21980
2017-10-16T11:16:44.495Z,21925
2017-10-16T11:17:14.563Z,21863
2017-10-16T11:17:44.545Z,21793
2017-10-16T11:18:14.627Z,21815
2017-10-16T11:18:44.651Z,21812
2017-10-16T11:19:14.636Z,21838
2017-10-16T11:19:44.680Z,21805
2017-10-16T11:20:14.742Z,21883
2017-10-16T11:20:44.767Z,21890
2017-10-16T11:21:14.763Z,21878
2017-10-16T11:21:44.806Z,22012
2017-10-16T11:22:14.838Z,22040
2017-10-16T11:22:44.883Z,21980
2017-10-16T11:23:14.926Z,22005
2017-10-16T11:23:44.948Z,21878
2017-10-16T11:24:14.986Z,21850
2017-10-16T11:24:45.030Z,21790
2017-10-16T11:25:15.059Z,21743
2017-10-16T11:25:45.069Z,21785
2017-10-16T11:26:15.128Z,21735
2017-10-16T11:27:15.169Z,21763
2017-10-16T11:27:45.243Z,21770
2017-10-16T11:28:15.253Z,21715
2017-10-16T11:28:45.258Z,21647
2017-10-16T11:29:15.375Z,21635
2017-10-16T11:29:45.330Z,21640
2017-10-16T11:30:15.372Z,21715
2017-10-16T11:30:45.469Z,21682
2017-10-16T11:31:15.472Z,21697
2017-10-16T11:31:45.518Z,21630
2017-10-16T11:32:15.532Z,21590
2017-10-16T11:32:45.540Z,21575
2017-10-16T11:33:15.578Z,21568
2017-10-16T11:33:45.601Z,21590
2017-10-16T11:34:15.651Z,21617
2017-10-16T11:34:45.657Z,21562
2017-10-16T11:35:15.671Z,21497
2017-10-16T11:35:45.704Z,21407
2017-10-16T11:36:15.743Z,21437
2017-10-16T11:36:45.805Z,21430
2017-10-16T11:37:15.850Z,21470
2017-10-16T11:37:45.829Z,21450
2017-10-16T11:38:15.881Z,21407
2017-10-16T11:38:45.891Z,21368
2017-10-16T11:39:15.982Z,21268
2017-10-16T11:39:45.976Z,21260
2017-10-16T11:40:16.001Z,21217
2017-10-16T11:40:46.054Z,21190
2017-10-16T11:41:16.121Z,21145
2017-10-16T11:41:46.104Z,21107
2017-10-16T11:42:16.160Z,21065
2017-10-16T11:42:46.163Z,21088
2017-10-16T11:43:16.240Z,21013
2017-10-16T11:43:46.247Z,21000
2017-10-16T11:44:16.274Z,20970
2017-10-16T11:44:46.331Z,20945
2017-10-16T11:45:16.323Z,20942
2017-10-16T11:46:16.556Z,20960
2017-10-16T11:46:46.455Z,21020
2017-10-16T11:47:16.525Z,20987
2017-10-16T11:47:46.544Z,20940
2017-10-16T11:48:16.573Z,20918
2017-10-16T11:48:46.633Z,20908
2017-10-16T11:49:16.652Z,20915
2017-10-16T11:49:46.648Z,20923
2017-10-16T11:50:16.720Z,20950
2017-10-16T11:50:46.762Z,20938
2017-10-16T11:51:16.928Z,20870
2017-10-16T11:51:46.829Z,20810
2017-10-16T11:52:16.837Z,20698
2017-10-16T11:52:47.371Z,20640
2017-10-16T12:05:11.358Z,19603
2017-10-16T12:05:40.484Z,19562
2017-10-16T12:06:11.829Z,19515
2017-10-16T12:06:40.609Z,19498
2017-10-16T12:07:11.465Z,19470
2017-10-16T12:07:40.615Z,19445
2017-10-16T12:08:11.489Z,19337
2017-10-16T12:08:40.678Z,19340
2017-10-16T12:09:11.620Z,19310